Time;durP1;ratioP1;P1;durP2;ratioP2;P2;SDS_P1;SDS_P2;PMS_P1;PMS_P2;Temp;Humidity;BMP_temperature;BMP_pressure;BME280_temperature;BME280_humidity;BME280_pressure;Samples;Min_cycle;Max_cycle;Signal;HPM_P1;HPM_P2
2022/09/30 00:01:03;;;;;;;6.63;3.83;;;;;;;-140.72;100.00;52989.50;5003979;28;20053;-71
2022/09/30 00:03:28;;;;;;;5.47;3.45;;;;;;;-140.72;100.00;52979.34;5020634;28;20061;-71
2022/09/30 00:05:58;;;;;;;6.63;4.13;;;;;;;-140.72;100.00;52969.19;4990017;28;20026;-71
2022/09/30 00:08:24;;;;;;;4.80;3.63;;;;;;;-140.72;100.00;52950.94;5009472;28;20101;-71
2022/09/30 00:11:08;;;;;;;5.05;3.40;;;;;;;-140.72;100.00;53011.81;5002793;28;20129;-71
2022/09/30 00:13:36;;;;;;;4.75;3.97;;;;;;;-140.72;100.00;52991.53;4982087;28;20026;-71
2022/09/30 00:16:02;;;;;;;4.75;3.60;;;;;;;-140.72;100.00;52930.66;4989699;28;20026;-71
2022/09/30 00:18:28;;;;;;;5.97;3.08;;;;;;;-140.72;100.00;52946.88;5019191;28;20109;-70
2022/09/30 00:20:54;;;;;;;5.68;3.38;;;;;;;-140.72;100.00;52973.25;5002882;28;20519;-71
2022/09/30 00:23:21;;;;;;;5.00;2.60;;;;;;;-140.72;100.00;52944.84;5001448;28;20023;-71
2022/09/30 00:25:47;;;;;;;5.70;3.05;;;;;;;-140.72;100.00;52963.13;4993899;28;20026;-71
2022/09/30 00:28:13;;;;;;;4.10;2.97;;;;;;;-140.72;100.00;52944.84;5004833;28;20038;-71
2022/09/30 00:30:38;;;;;;;4.65;3.53;;;;;;;-140.72;100.00;52946.88;4992615;28;20033;-71
2022/09/30 00:33:12;;;;;;;8.77;4.03;;;;;;;-140.72;100.00;52948.91;4984594;28;20018;-71
2022/09/30 00:35:38;;;;;;;4.03;2.97;;;;;;;-140.72;100.00;52944.84;5004709;28;20117;-71
2022/09/30 00:38:25;;;;;;;4.60;3.05;;;;;;;-140.72;100.00;52920.50;5006058;28;20104;-71
2022/09/30 00:40:51;;;;;;;4.43;3.40;;;;;;;-140.72;100.00;52926.59;5010413;28;20037;-71
2022/09/30 00:43:37;;;;;;;6.78;3.67;;;;;;;-140.72;100.00;52967.16;5022791;28;20057;-71
2022/09/30 00:46:04;;;;;;;5.07;2.88;;;;;;;-140.72;100.00;52965.16;5002630;28;20038;-71
2022/09/30 00:48:34;;;;;;;6.65;3.65;;;;;;;-140.72;100.00;52977.31;4988504;28;20038;-71
2022/09/30 00:51:01;;;;;;;5.45;3.53;;;;;;;-140.72;100.00;52942.81;5002678;28;20030;-71
2022/09/30 00:53:38;;;;;;;3.50;2.72;;;;;;;-140.72;100.00;52940.78;5020059;28;20030;-71
2022/09/30 00:56:15;;;;;;;6.45;3.13;;;;;;;-140.72;100.00;52975.28;4996688;28;20084;-71
2022/09/30 00:58:48;;;;;;;4.22;2.95;;;;;;;-140.72;100.00;52955.00;5006663;28;20065;-71
2022/09/30 01:01:14;;;;;;;5.03;3.00;;;;;;;-140.72;100.00;52967.16;5001338;28;20113;-71
2022/09/30 01:03:51;;;;;;;7.95;3.90;;;;;;;-140.72;100.00;52971.22;5028352;28;20049;-71
2022/09/30 01:06:21;;;;;;;5.88;2.95;;;;;;;-140.72;100.00;52983.41;5008464;28;20450;-71
2022/09/30 01:08:47;;;;;;;4.20;2.90;;;;;;;-140.72;100.00;52957.03;4988612;28;20053;-71
2022/09/30 01:11:13;;;;;;;6.20;3.58;;;;;;;-140.72;100.00;52985.44;5007935;28;20544;-71
2022/09/30 01:13:40;;;;;;;3.85;2.55;;;;;;;-140.72;100.00;52965.16;5002758;28;20014;-71
2022/09/30 01:16:30;;;;;;;4.60;3.25;;;;;;;-140.72;100.00;52973.25;5004811;28;20038;-71
2022/09/30 01:19:12;;;;;;;4.93;2.70;;;;;;;-140.72;100.00;52950.94;5006308;28;20021;-71
2022/09/30 01:21:56;;;;;;;4.10;2.75;;;;;;;-140.72;100.00;52969.19;4993250;28;20046;-71
2022/09/30 01:24:46;;;;;;;6.13;3.65;;;;;;;-140.72;100.00;52961.09;5009278;28;20440;-71
2022/09/30 01:27:24;;;;;;;4.50;2.92;;;;;;;-140.72;100.00;52977.31;5005870;28;20049;-71
2022/09/30 01:30:04;;;;;;;4.78;2.60;;;;;;;-140.72;100.00;52985.44;4997940;28;20481;-71
2022/09/30 01:32:48;;;;;;;3.22;2.45;;;;;;;-140.72;100.00;52944.84;5000775;28;20446;-71
2022/09/30 01:35:44;;;;;;;5.57;3.08;;;;;;;-140.72;100.00;52999.66;4993274;28;20037;-71
2022/09/30 01:38:25;;;;;;;4.45;2.50;;;;;;;-140.72;100.00;52977.31;5013801;28;20102;-71
2022/09/30 01:41:20;;;;;;;3.78;2.78;;;;;;;-140.72;100.00;52959.06;5008303;28;20026;-72
2022/09/30 01:44:04;;;;;;;4.32;2.50;;;;;;;-140.72;100.00;52971.22;5008028;28;20596;-71
2022/09/30 01:46:43;;;;;;;3.58;2.58;;;;;;;-140.72;100.00;52975.28;5005364;28;20060;-71
2022/09/30 01:49:26;;;;;;;3.85;2.55;;;;;;;-140.72;100.00;52971.22;4987249;28;20105;-71
2022/09/30 01:52:04;;;;;;;4.53;2.97;;;;;;;-140.72;100.00;52985.44;5009988;28;20050;-71
2022/09/30 01:54:49;;;;;;;4.20;3.05;;;;;;;-140.72;100.00;52950.94;4996374;28;20022;-71
2022/09/30 01:57:27;;;;;;;3.88;2.53;;;;;;;-140.72;100.00;53015.88;4997063;28;20336;-71
2022/09/30 01:59:58;;;;;;;5.18;2.95;;;;;;;-140.72;100.00;52967.16;5001652;28;20393;-71
2022/09/30 02:02:28;;;;;;;3.78;2.72;;;;;;;-140.72;100.00;52999.66;5000783;28;20049;-71
2022/09/30 02:04:58;;;;;;;3.70;2.70;;;;;;;-140.72;100.00;52987.47;5004966;28;20140;-70
2022/09/30 02:07:48;;;;;;;7.15;2.88;;;;;;;-140.72;100.00;53011.81;5027663;28;20025;-71
2022/09/30 02:10:19;;;;;;;3.17;2.50;;;;;;;-140.72;100.00;52969.19;5006418;28;20030;-71
2022/09/30 02:13:02;;;;;;;4.57;2.47;;;;;;;-140.72;100.00;53015.88;5004543;28;20029;-71
2022/09/30 02:15:33;;;;;;;4.78;3.05;;;;;;;-140.72;100.00;52979.34;4998645;28;20029;-71
2022/09/30 02:18:05;;;;;;;4.50;2.67;;;;;;;-140.72;100.00;52997.63;4983786;28;20071;-71
2022/09/30 02:20:35;;;;;;;3.65;3.17;;;;;;;-140.72;100.00;52957.03;4996675;28;20507;-70
2022/09/30 02:23:09;;;;;;;;;;;;;;;-140.72;100.00;52971.22;5005620;28;20029;-71
2022/09/30 02:25:41;;;;;;;5.75;3.45;;;;;;;-140.72;100.00;52987.47;5001655;28;19916;-71
2022/09/30 02:28:14;;;;;;;3.03;2.65;;;;;;;-140.72;100.00;52977.31;5004396;28;20026;-71
2022/09/30 02:30:46;;;;;;;4.55;3.08;;;;;;;-140.72;100.00;53011.81;5006419;28;20074;-71
2022/09/30 02:35:53;;;;;;;4.40;3.10;;;;;;;-140.72;100.00;52955.00;5000088;28;20516;-68
2022/09/30 02:38:24;;;;;;;4.45;2.85;;;;;;;-140.72;100.00;52989.50;5002470;28;20076;-68
2022/09/30 02:41:01;;;;;;;5.78;3.17;;;;;;;-140.72;100.00;53011.81;5002458;28;20038;-68
2022/09/30 02:43:28;;;;;;;4.93;3.05;;;;;;;-140.72;100.00;53017.91;5003912;28;20033;-68
2022/09/30 02:46:06;;;;;;;3.45;2.50;;;;;;;-140.72;100.00;52991.53;5001328;28;20022;-68
2022/09/30 02:48:58;;;;;;;5.07;3.55;;;;;;;-140.72;100.00;52967.16;5002022;28;20025;-69
2022/09/30 02:51:37;;;;;;;6.18;3.70;;;;;;;-140.72;100.00;52959.06;5003546;28;20076;-68
2022/09/30 02:54:12;;;;;;;5.53;3.28;;;;;;;-140.72;100.00;53001.66;5006170;28;20230;-68
2022/09/30 02:56:50;;;;;;;3.45;2.50;;;;;;;-140.72;100.00;52987.47;5006910;28;20089;-68
2022/09/30 02:59:15;;;;;;;4.20;3.25;;;;;;;-140.72;100.00;52995.59;5006676;28;20029;-68
2022/09/30 03:01:43;;;;;;;5.60;3.15;;;;;;;-140.72;100.00;52991.53;5000967;28;20420;-68
2022/09/30 03:04:17;;;;;;;8.43;3.65;;;;;;;-140.72;100.00;52999.66;5003271;28;20373;-68
2022/09/30 03:06:43;;;;;;;4.90;2.95;;;;;;;-140.72;100.00;52999.66;5001905;28;20037;-68
2022/09/30 03:09:09;;;;;;;5.35;3.35;;;;;;;-140.72;100.00;53009.78;5004122;28;20043;-68
2022/09/30 03:11:36;;;;;;;5.13;3.40;;;;;;;-140.72;100.00;52983.41;5005469;28;20026;-67
2022/09/30 03:14:04;;;;;;;4.80;2.92;;;;;;;-140.72;100.00;52969.19;5007424;28;20379;-68
2022/09/30 03:16:42;;;;;;;5.20;3.20;;;;;;;-140.72;100.00;52989.50;5001683;28;20026;-68
2022/09/30 03:19:45;;;;;;;4.18;3.25;;;;;;;-140.72;100.00;52997.63;5004786;28;20030;-68
2022/09/30 03:22:23;;;;;;;5.63;3.50;;;;;;;-140.72;100.00;52987.47;5001386;28;20339;-68
2022/09/30 03:25:13;;;;;;;5.10;3.83;;;;;;;-140.72;100.00;52987.47;5003188;28;20103;-68
2022/09/30 03:28:00;;;;;;;4.15;3.53;;;;;;;-140.72;100.00;52979.34;4999921;28;20104;-68
2022/09/30 03:30:27;;;;;;;4.28;2.65;;;;;;;-140.72;100.00;52975.28;5002087;28;20473;-67
2022/09/30 03:33:13;;;;;;;5.55;2.47;;;;;;;-140.72;100.00;52991.53;5007095;28;20097;-67
2022/09/30 03:35:54;;;;;;;7.78;4.03;;;;;;;-140.72;100.00;52987.47;4990654;28;20076;-68
2022/09/30 03:38:48;;;;;;;4.15;3.30;;;;;;;-140.72;100.00;52971.22;5002220;28;20034;-67
2022/09/30 03:41:16;;;;;;;3.92;3.28;;;;;;;-140.72;100.00;52963.13;4996232;28;20045;-67
2022/09/30 03:44:03;;;;;;;7.60;4.88;;;;;;;-140.72;100.00;53007.75;5004096;28;20061;-67
2022/09/30 03:46:34;;;;;;;6.82;4.13;;;;;;;-140.72;100.00;52989.50;5004997;28;20382;-67
2022/09/30 03:49:05;;;;;;;6.20;4.38;;;;;;;-140.72;100.00;52979.34;5010241;28;20025;-67
2022/09/30 03:51:31;;;;;;;6.65;5.18;;;;;;;-140.72;100.00;52995.59;5004094;28;20025;-68
2022/09/30 03:53:57;;;;;;;5.22;3.85;;;;;;;-140.72;100.00;52981.38;5006292;28;20017;-68
2022/09/30 03:56:28;;;;;;;5.93;3.95;;;;;;;-140.72;100.00;52979.34;5002004;28;20029;-68
2022/09/30 03:58:55;;;;;;;6.10;4.28;;;;;;;-140.72;100.00;52977.31;5008351;28;20017;-68
2022/09/30 04:01:22;;;;;;;6.50;4.55;;;;;;;-140.72;100.00;52995.59;5006055;28;20079;-68
2022/09/30 04:03:51;;;;;;;5.63;4.10;;;;;;;-140.72;100.00;52959.06;5007387;28;20422;-68
2022/09/30 04:06:17;;;;;;;5.45;3.72;;;;;;;-140.72;100.00;53001.66;4998273;28;20030;-68
2022/09/30 04:08:43;;;;;;;7.63;4.43;;;;;;;-140.72;100.00;52987.47;5001724;28;20018;-68
2022/09/30 04:11:09;;;;;;;6.40;4.40;;;;;;;-140.72;100.00;53003.69;5002622;28;20087;-68
2022/09/30 04:13:35;;;;;;;7.40;3.45;;;;;;;-140.72;100.00;52981.38;5006683;28;20018;-68
2022/09/30 04:16:00;;;;;;;6.93;4.00;;;;;;;-140.72;100.00;53046.31;4999096;28;20031;-68
2022/09/30 04:18:26;;;;;;;6.00;4.40;;;;;;;-140.72;100.00;53015.88;5003631;28;20038;-67
2022/09/30 04:20:51;;;;;;;8.25;5.22;;;;;;;-140.72;100.00;52973.25;5004957;28;20018;-67
2022/09/30 04:23:16;;;;;;;5.30;4.72;;;;;;;-140.72;100.00;53005.72;4999281;28;20030;-67
2022/09/30 04:25:42;;;;;;;7.88;5.07;;;;;;;-140.72;100.00;52991.53;5004749;28;20057;-67
2022/09/30 04:28:07;;;;;;;9.70;5.43;;;;;;;-140.72;100.00;53003.69;5000273;28;20022;-67
2022/09/30 04:30:33;;;;;;;8.32;5.88;;;;;;;-140.72;100.00;52977.31;4998661;28;20022;-67
2022/09/30 04:32:58;;;;;;;8.57;6.85;;;;;;;-140.72;100.00;52989.50;4997486;28;20077;-67
2022/09/30 04:35:23;;;;;;;10.63;7.75;;;;;;;-140.72;100.00;52999.66;5002315;28;20041;-67
2022/09/30 04:37:49;;;;;;;9.65;6.47;;;;;;;-140.72;100.00;52946.88;4999344;28;20076;-67
2022/09/30 04:40:15;;;;;;;10.68;6.95;;;;;;;-140.72;100.00;52983.41;5009648;28;20035;-68
2022/09/30 04:42:41;;;;;;;6.43;4.78;;;;;;;-140.72;100.00;52983.41;5009712;28;20021;-68
2022/09/30 04:45:11;;;;;;;7.43;5.75;;;;;;;-140.72;100.00;53017.91;5003534;28;20557;-66
2022/09/30 04:47:37;;;;;;;;;;;;;;;-140.72;100.00;52979.34;5003951;28;20524;-66
2022/09/30 04:50:04;;;;;;;8.38;5.22;;;;;;;-140.72;100.00;52997.63;5009412;28;19914;-68
2022/09/30 04:52:30;;;;;;;8.68;5.68;;;;;;;-140.72;100.00;53017.91;5003174;28;20038;-68
2022/09/30 04:54:55;;;;;;;8.30;6.20;;;;;;;-140.72;100.00;53009.78;5000233;28;20038;-66
2022/09/30 04:57:21;;;;;;;8.43;7.00;;;;;;;-140.72;100.00;52983.41;4996306;28;20112;-67
2022/09/30 04:59:46;;;;;;;6.65;5.72;;;;;;;-140.72;100.00;52971.22;5009136;28;20388;-66
2022/09/30 05:02:12;;;;;;;7.90;5.65;;;;;;;-140.72;100.00;52932.66;4999469;28;20041;-68
2022/09/30 05:04:38;;;;;;;6.97;5.88;;;;;;;-140.72;100.00;53005.72;5004363;28;20034;-67
2022/09/30 05:07:07;;;;;;;7.72;5.97;;;;;;;-140.72;100.00;53015.88;5012241;28;20026;-67
2022/09/30 05:09:34;;;;;;;8.90;6.88;;;;;;;-140.72;100.00;53026.03;4993643;28;20027;-67
2022/09/30 05:12:02;;;;;;;9.90;7.15;;;;;;;-140.72;100.00;53001.66;4994699;28;20022;-66
2022/09/30 05:14:28;;;;;;;13.18;8.00;;;;;;;-140.72;100.00;53003.69;5012288;28;20065;-67
2022/09/30 05:16:54;;;;;;;9.65;7.00;;;;;;;-140.72;100.00;53001.66;5012281;28;20048;-67
2022/09/30 05:19:20;;;;;;;6.32;5.05;;;;;;;-140.72;100.00;52999.66;5012520;28;20049;-67
2022/09/30 05:21:45;;;;;;;10.40;6.70;;;;;;;-140.72;100.00;53003.69;5010853;28;20552;-67
2022/09/30 05:24:11;;;;;;;10.20;7.45;;;;;;;-140.72;100.00;53007.75;5002194;28;20045;-67
2022/09/30 05:26:38;;;;;;;13.18;7.63;;;;;;;-140.72;100.00;52973.25;5003258;28;20030;-68
2022/09/30 05:29:03;;;;;;;11.18;6.63;;;;;;;-140.72;100.00;53007.75;5008180;28;20022;-67
2022/09/30 05:31:29;;;;;;;8.52;6.88;;;;;;;-140.72;100.00;52991.53;5006944;28;20072;-67
2022/09/30 05:33:54;;;;;;;11.18;7.57;;;;;;;-140.72;100.00;52983.41;5003196;28;20054;-67
2022/09/30 05:36:20;;;;;;;9.02;6.18;;;;;;;-140.72;100.00;53019.94;5005963;28;20512;-66
2022/09/30 05:38:50;;;;;;;9.77;6.82;;;;;;;-140.72;100.00;52987.47;5006159;28;20026;-67
2022/09/30 05:41:19;;;;;;;7.95;6.95;;;;;;;-140.72;100.00;52985.44;5009575;28;20274;-67
2022/09/30 05:43:46;;;;;;;8.88;6.00;;;;;;;-140.72;100.00;53034.16;5004818;28;20110;-66
2022/09/30 05:46:12;;;;;;;12.05;8.93;;;;;;;-140.72;100.00;52999.66;5002387;28;21480;-66
2022/09/30 05:48:37;;;;;;;12.90;9.13;;;;;;;-140.72;100.00;52971.22;5000847;28;20025;-66
2022/09/30 05:51:03;;;;;;;13.90;8.98;;;;;;;-140.72;100.00;52963.13;5007198;28;20053;-66
2022/09/30 05:53:30;;;;;;;12.18;8.02;;;;;;;-140.72;100.00;52987.47;5005360;28;20030;-67
2022/09/30 05:55:56;;;;;;;10.48;7.13;;;;;;;-140.72;100.00;53007.75;4993210;28;20455;-66
2022/09/30 05:58:21;;;;;;;10.93;8.65;;;;;;;-140.72;100.00;52979.34;5012324;28;20025;-67
2022/09/30 06:00:48;;;;;;;10.55;7.28;;;;;;;-140.72;100.00;53015.88;5011720;28;20455;-66
2022/09/30 06:03:14;;;;;;;9.95;7.50;;;;;;;-140.72;100.00;52975.28;5010251;28;20022;-67
2022/09/30 06:05:40;;;;;;;10.57;7.13;;;;;;;-140.72;100.00;52991.53;5012236;28;20108;-66
2022/09/30 06:08:06;;;;;;;12.27;8.23;;;;;;;-140.72;100.00;52981.38;5006051;28;20097;-67
2022/09/30 06:10:33;;;;;;;12.00;9.48;;;;;;;-140.72;100.00;52957.03;5005288;28;20040;-67
2022/09/30 06:13:01;;;;;;;11.35;8.40;;;;;;;-140.72;100.00;53024.00;5009252;28;20022;-67
2022/09/30 06:15:26;;;;;;;9.38;7.22;;;;;;;-140.72;100.00;52977.31;5009298;28;20025;-67
2022/09/30 06:17:55;;;;;;;12.52;8.40;;;;;;;-140.72;100.00;52975.28;5011129;28;20363;-67
2022/09/30 06:20:21;;;;;;;11.70;9.23;;;;;;;-140.72;100.00;53007.75;5010525;28;20018;-67
2022/09/30 06:22:47;;;;;;;11.10;9.10;;;;;;;-140.72;100.00;52975.28;5011425;28;20279;-67
2022/09/30 06:25:13;;;;;;;14.95;9.20;;;;;;;-140.72;100.00;52955.00;5010550;28;20359;-67
2022/09/30 06:27:38;;;;;;;12.38;8.77;;;;;;;-140.72;100.00;53001.66;5010150;28;20025;-67
2022/09/30 06:30:07;;;;;;;10.73;9.50;;;;;;;-140.72;100.00;52969.19;5009284;28;20045;-67
2022/09/30 06:32:32;;;;;;;10.77;8.80;;;;;;;-140.72;100.00;52995.59;4999883;28;20049;-67
2022/09/30 06:34:58;;;;;;;9.90;8.45;;;;;;;-140.72;100.00;52942.81;5010190;28;20121;-66
2022/09/30 06:37:24;;;;;;;12.43;9.48;;;;;;;-140.72;100.00;52989.50;5010207;28;20037;-67
2022/09/30 06:39:49;;;;;;;11.48;9.45;;;;;;;-140.72;100.00;52963.13;5008231;28;20033;-67
2022/09/30 06:42:15;;;;;;;12.45;8.32;;;;;;;-140.72;100.00;52959.06;5010989;28;20033;-67
2022/09/30 06:44:41;;;;;;;10.65;8.80;;;;;;;-140.72;100.00;52926.59;5010525;28;20026;-68
2022/09/30 06:47:07;;;;;;;13.38;10.52;;;;;;;-140.72;100.00;52959.06;5010505;28;20033;-66
2022/09/30 06:49:33;;;;;;;12.65;9.93;;;;;;;-140.72;100.00;52983.41;5010041;28;20034;-66
2022/09/30 06:52:00;;;;;;;10.80;8.95;;;;;;;-140.72;100.00;52979.34;5006813;28;20022;-67
2022/09/30 06:54:27;;;;;;;13.38;10.02;;;;;;;-140.72;100.00;52948.91;5008650;28;20033;-67
2022/09/30 06:56:54;;;;;;;14.68;9.10;;;;;;;-140.72;100.00;52942.81;5006008;28;20022;-67
2022/09/30 06:59:19;;;;;;;12.82;9.27;;;;;;;-140.72;100.00;52944.84;4998960;28;20041;-67
2022/09/30 07:01:45;;;;;;;11.55;9.15;;;;;;;-140.72;100.00;52922.53;5002752;28;20033;-66
2022/09/30 07:04:11;;;;;;;15.02;10.30;;;;;;;-140.72;100.00;52904.25;4993916;28;20378;-66
2022/09/30 07:06:37;;;;;;;10.95;9.20;;;;;;;-140.72;100.00;52934.69;5005206;28;20033;-67
2022/09/30 07:09:07;;;;;;;13.25;9.05;;;;;;;-140.72;100.00;52914.41;4998268;28;20022;-67
2022/09/30 07:11:33;;;;;;;12.80;10.40;;;;;;;-140.72;100.00;52894.13;5000965;28;20018;-66
2022/09/30 07:13:58;;;;;;;11.35;9.00;;;;;;;-140.72;100.00;52910.34;5002240;28;20030;-67
2022/09/30 07:16:26;;;;;;;12.75;9.05;;;;;;;-140.72;100.00;52918.47;5001134;28;20358;-66
2022/09/30 07:18:54;;;;;;;11.02;8.80;;;;;;;-140.72;100.00;52902.22;4997402;28;20018;-67
2022/09/30 07:21:20;;;;;;;13.50;9.38;;;;;;;-140.72;100.00;52910.34;5000612;28;20029;-67
2022/09/30 07:23:48;;;;;;;11.05;7.93;;;;;;;-140.72;100.00;52916.44;5004278;28;20022;-67
2022/09/30 07:26:16;;;;;;;11.93;8.90;;;;;;;-140.72;100.00;52900.19;5000835;28;20022;-67
2022/09/30 07:28:42;;;;;;;10.25;7.63;;;;;;;-140.72;100.00;52940.78;5004973;28;20068;-67
2022/09/30 07:31:20;;;;;;;10.27;8.05;;;;;;;-140.72;100.00;52873.81;5003143;28;20645;-68
2022/09/30 07:33:46;;;;;;;9.43;7.25;;;;;;;-140.72;100.00;52883.97;5003602;28;20450;-66
2022/09/30 07:36:17;;;;;;;10.48;7.75;;;;;;;-140.72;100.00;52898.16;5003786;28;20435;-67
2022/09/30 07:38:44;;;;;;;8.60;6.38;;;;;;;-140.72;100.00;52908.31;5008339;28;20037;-67
2022/09/30 07:41:20;;;;;;;10.88;6.88;;;;;;;-140.72;100.00;52875.84;4996341;28;20018;-67
2022/09/30 07:43:47;;;;;;;8.20;6.10;;;;;;;-140.72;100.00;52900.19;5005240;28;20097;-67
2022/09/30 07:46:23;;;;;;;8.50;6.07;;;;;;;-140.72;100.00;52910.34;5004803;28;20359;-67
2022/09/30 07:48:50;;;;;;;6.75;5.43;;;;;;;-140.72;100.00;52865.69;5004877;28;20210;-67
2022/09/30 07:51:23;;;;;;;7.15;5.60;;;;;;;-140.72;100.00;52886.00;5006073;28;20033;-66
2022/09/30 07:53:52;;;;;;;5.78;4.95;;;;;;;-140.72;100.00;52898.16;5002415;28;20022;-67
2022/09/30 07:56:19;;;;;;;7.63;6.07;;;;;;;-140.72;100.00;52855.56;4996613;28;20153;-67
2022/09/30 07:58:44;;;;;;;8.77;5.25;;;;;;;-140.72;100.00;52871.78;5003666;28;20022;-68
2022/09/30 08:01:11;;;;;;;6.65;4.70;;;;;;;-140.72;100.00;52875.84;5003165;28;20104;-67
2022/09/30 08:03:40;;;;;;;8.18;5.57;;;;;;;-140.72;100.00;52890.06;5008630;28;20021;-67
2022/09/30 08:06:06;;;;;;;8.40;4.55;;;;;;;-140.72;100.00;52869.75;5003926;28;20596;-66
2022/09/30 08:08:31;;;;;;;6.15;4.57;;;;;;;-140.72;100.00;52851.50;5000733;28;20104;-67
2022/09/30 08:10:59;;;;;;;7.88;5.30;;;;;;;-140.72;100.00;52841.34;4999998;28;20171;-68
2022/09/30 08:13:24;;;;;;;6.60;3.83;;;;;;;-140.72;100.00;52825.13;5007299;28;20092;-68
2022/09/30 08:15:49;;;;;;;5.15;4.10;;;;;;;-140.72;100.00;52873.81;5003433;28;20471;-68
2022/09/30 08:18:15;;;;;;;4.78;3.63;;;;;;;-140.72;100.00;52853.53;5009344;28;20101;-68
2022/09/30 08:20:40;;;;;;;4.13;3.47;;;;;;;-140.72;100.00;52849.47;5004277;28;20030;-68
2022/09/30 08:23:05;;;;;;;4.38;3.30;;;;;;;-140.72;100.00;52825.13;5000980;28;20173;-68
2022/09/30 08:25:31;;;;;;;6.80;3.63;;;;;;;-140.72;100.00;52819.03;5004586;28;20026;-67
2022/09/30 08:27:56;;;;;;;3.75;2.28;;;;;;;-140.72;100.00;52853.53;4991354;28;20030;-68
2022/09/30 08:30:22;;;;;;;4.88;2.65;;;;;;;-140.72;100.00;52861.66;5002225;28;20039;-68
2022/09/30 08:32:47;;;;;;;4.68;2.53;;;;;;;-140.72;100.00;52812.94;4991151;28;20029;-68
2022/09/30 08:35:13;;;;;;;5.28;2.58;;;;;;;-140.72;100.00;52861.66;4995302;28;20168;-68
2022/09/30 08:37:38;;;;;;;3.55;2.60;;;;;;;-140.72;100.00;52831.19;5009373;28;20072;-68
2022/09/30 08:40:04;;;;;;;4.20;2.35;;;;;;;-140.72;100.00;52821.06;5006801;28;20105;-69
2022/09/30 08:42:38;;;;;;;3.38;1.98;;;;;;;-140.72;100.00;52825.13;5002290;28;20201;-68
2022/09/30 08:45:12;;;;;;;2.92;2.08;;;;;;;-140.72;100.00;52851.50;5008771;28;20113;-68
2022/09/30 08:47:37;;;;;;;2.63;2.15;;;;;;;-140.72;100.00;52810.91;4998295;28;20034;-68
2022/09/30 08:50:28;;;;;;;3.15;2.10;;;;;;;-140.72;100.00;52817.00;4996751;28;20029;-68
2022/09/30 08:53:00;;;;;;;3.33;2.05;;;;;;;-140.72;100.00;52833.22;5006770;28;20121;-68
2022/09/30 08:55:38;;;;;;;2.30;1.42;;;;;;;-140.72;100.00;52831.19;5000062;28;20038;-68
2022/09/30 08:58:05;;;;;;;2.50;1.77;;;;;;;-140.72;100.00;52812.94;4991566;28;20022;-68
2022/09/30 09:00:30;;;;;;;1.95;1.52;;;;;;;-140.72;100.00;52788.59;5002179;28;20061;-68
2022/09/30 09:03:02;;;;;;;2.55;1.60;;;;;;;-140.72;100.00;52817.00;5009623;28;20056;-68
2022/09/30 09:05:46;;;;;;;3.28;1.73;;;;;;;-140.72;100.00;52821.06;4996851;28;20331;-68
2022/09/30 09:08:40;;;;;;;2.58;1.60;;;;;;;-140.72;100.00;52812.94;5009678;28;20113;-67
2022/09/30 09:11:10;;;;;;;3.50;2.00;;;;;;;-140.72;100.00;52784.53;5009588;28;20016;-67
2022/09/30 09:13:49;;;;;;;3.92;1.50;;;;;;;-140.72;100.00;52817.00;5007808;28;20105;-67
2022/09/30 09:16:21;;;;;;;;;;;;;;;-140.72;100.00;52788.59;5000713;28;20042;-67
2022/09/30 09:18:52;;;;;;;2.22;1.42;;;;;;;-140.72;100.00;52760.19;5006014;28;19968;-67
2022/09/30 09:21:30;;;;;;;1.58;1.13;;;;;;;-140.72;100.00;52808.88;5008508;28;20037;-68
2022/09/30 09:24:00;;;;;;;1.88;1.38;;;;;;;-140.72;100.00;52780.47;4996636;28;20183;-69
2022/09/30 09:26:33;;;;;;;1.77;1.13;;;;;;;-140.72;100.00;52819.03;5010477;28;20022;-68
2022/09/30 09:29:24;;;;;;;1.70;1.20;;;;;;;-140.72;100.00;52792.66;5011455;28;20022;-68
2022/09/30 09:31:49;;;;;;;2.35;1.17;;;;;;;-140.72;100.00;52794.69;5011305;28;20439;-68
2022/09/30 09:34:14;;;;;;;2.22;1.27;;;;;;;-140.72;100.00;52748.00;5010034;28;20052;-68
2022/09/30 09:37:08;;;;;;;1.13;0.77;;;;;;;-140.72;100.00;52764.25;5012314;28;20041;-68
2022/09/30 09:40:06;;;;;;;1.77;1.17;;;;;;;-140.72;100.00;52762.22;5007742;28;20068;-68
2022/09/30 09:43:13;;;;;;;2.80;0.80;;;;;;;-140.72;100.00;52743.94;5010269;28;20046;-68
2022/09/30 09:45:46;;;;;;;2.28;1.02;;;;;;;-140.72;100.00;52780.47;4993877;28;20113;-67
2022/09/30 09:48:14;;;;;;;1.92;0.70;;;;;;;-140.72;100.00;52760.19;5011655;28;20121;-68
2022/09/30 09:51:17;;;;;;;1.27;0.60;;;;;;;-140.72;100.00;52752.06;5011002;28;20117;-68
2022/09/30 09:53:47;;;;;;;2.03;0.70;;;;;;;-140.72;100.00;52748.00;5002579;28;20026;-67
2022/09/30 09:56:27;;;;;;;1.33;0.68;;;;;;;-140.72;100.00;52774.38;5008085;28;20509;-67
2022/09/30 09:59:09;;;;;;;1.65;0.75;;;;;;;-140.72;100.00;52743.94;5012624;28;20041;-68
2022/09/30 10:01:38;;;;;;;0.47;0.30;;;;;;;-140.72;100.00;52758.16;5011600;28;20477;-67
2022/09/30 10:04:26;;;;;;;1.00;0.47;;;;;;;-140.72;100.00;52748.00;4999036;28;20099;-68
2022/09/30 10:07:10;;;;;;;0.85;0.45;;;;;;;-140.72;100.00;52776.41;5009119;28;20030;-67
2022/09/30 10:09:40;;;;;;;1.38;0.55;;;;;;;-140.72;100.00;52737.84;5002615;28;20018;-68
2022/09/30 10:12:05;;;;;;;2.33;0.35;;;;;;;-140.72;100.00;52741.91;5002312;28;20109;-67
2022/09/30 10:14:58;;;;;;;1.17;0.43;;;;;;;-140.72;100.00;52776.41;5011248;28;20116;-67
2022/09/30 10:17:36;;;;;;;1.20;0.50;;;;;;;-140.72;100.00;52723.66;4992594;28;20473;-67
2022/09/30 10:20:17;;;;;;;1.20;0.57;;;;;;;-140.72;100.00;52725.69;5011299;28;20064;-67
2022/09/30 10:22:43;;;;;;;0.75;0.32;;;;;;;-140.72;100.00;52737.84;5001461;28;20362;-69
2022/09/30 10:25:22;;;;;;;0.57;0.30;;;;;;;-140.72;100.00;52683.06;5007703;28;20021;-69
2022/09/30 10:27:59;;;;;;;0.83;0.47;;;;;;;-140.72;100.00;52723.66;4996584;28;20026;-69
2022/09/30 10:30:40;;;;;;;0.75;0.40;;;;;;;-140.72;100.00;52705.38;5005672;28;20018;-68
2022/09/30 10:33:34;;;;;;;0.55;0.38;;;;;;;-140.72;100.00;52638.41;5011084;28;20325;-68
2022/09/30 10:36:06;;;;;;;2.58;0.75;;;;;;;-140.72;100.00;52681.03;4995907;28;20035;-67
2022/09/30 10:38:33;;;;;;;1.10;0.60;;;;;;;-140.72;100.00;52634.38;5006601;28;20438;-69
2022/09/30 10:41:00;;;;;;;2.97;0.68;;;;;;;-140.72;100.00;52691.19;5008672;28;20346;-68
2022/09/30 10:43:28;;;;;;;2.60;1.00;;;;;;;-140.72;100.00;52695.25;5010843;28;20038;-67
2022/09/30 10:45:54;;;;;;;1.50;0.43;;;;;;;-140.72;100.00;52691.19;5006139;28;20373;-68
2022/09/30 10:48:23;;;;;;;0.77;0.40;;;;;;;-140.72;100.00;52650.59;5004583;28;20033;-67
2022/09/30 10:50:51;;;;;;;0.63;0.45;;;;;;;-140.72;100.00;52595.81;5003419;28;20018;-67
2022/09/30 10:53:24;;;;;;;0.93;0.38;;;;;;;-140.72;100.00;52662.78;5010669;28;20045;-68
2022/09/30 10:55:53;;;;;;;1.45;0.52;;;;;;;-140.72;100.00;52654.66;5004362;28;20457;-67
2022/09/30 10:58:42;;;;;;;1.95;0.63;;;;;;;-140.72;100.00;52648.56;5003539;28;20028;-68
2022/09/30 11:01:15;;;;;;;1.40;0.55;;;;;;;-140.72;100.00;52591.75;5006415;28;20108;-66
2022/09/30 11:04:06;;;;;;;0.98;0.43;;;;;;;-140.72;100.00;52658.72;5007539;28;20073;-67
2022/09/30 11:06:36;;;;;;;1.30;0.50;;;;;;;-140.72;100.00;52534.94;5004277;28;20026;-67
2022/09/30 11:09:19;;;;;;;0.50;0.30;;;;;;;-140.72;100.00;52634.38;5007538;28;20192;-67
2022/09/30 11:11:53;;;;;;;0.75;0.52;;;;;;;-140.72;100.00;52620.16;5001225;28;20397;-66
2022/09/30 11:14:31;;;;;;;1.73;0.55;;;;;;;-140.72;100.00;52648.56;5005609;28;20026;-67
2022/09/30 11:17:10;;;;;;;1.58;0.75;;;;;;;-140.72;100.00;52614.06;5001631;28;20501;-66
2022/09/30 11:19:58;;;;;;;1.55;0.93;;;;;;;-140.72;100.00;52587.69;4998245;28;20108;-67
2022/09/30 11:22:48;;;;;;;7.05;1.05;;;;;;;-140.72;100.00;52567.41;5006676;28;20025;-67
2022/09/30 11:25:18;;;;;;;1.40;1.02;;;;;;;-140.72;0.00;52405.06;5003246;28;20128;-66
2022/09/30 11:28:09;;;;;;;2.05;1.10;;;;;;;-140.72;0.00;52346.22;5005965;28;20097;-66
2022/09/30 11:30:47;;;;;;;1.52;0.90;;;;;;;-140.72;0.00;52358.41;4993296;28;20045;-66
2022/09/30 11:33:33;;;;;;;1.42;0.93;;;;;;;-140.72;0.00;52561.31;5004481;28;20052;-66